SBRB

Plácido de Castro Airport

Rio Branco, Brazil
TAF SBRB 181600Z 1818/1918 25005KT 9999 SCT030 TN21/1908Z TX33/1918Z BECMG 1822/1824 00000KT CAVOK BECMG 1911/1913 27003KT BECMG 1915/1917 0600 5KT SCT030 RMK PFF
Issued Valid From Valid To
Jul-18 @ 16:00 UTC
(7 hours ago)
Jul-18 @ 18:00 UTC
(5 hours ago)
Jul-19 @ 18:00 UTC
(in 19 hours)
Expired Click to View Jul-18 @ 18:00 to Jul-18 @ 22:00
TAF SBRB 181600Z 1818/1918 25005KT 9999 SCT030 TN21/1908Z TX33/1918Z
Wind Visibility Clouds
250° at 5 knots 10,000+ meters
  • Scattered at 3,000' AGL
Becoming Jul-18 @ 22:00 to Jul-19 @ 11:00
BECMG 1822/1824 00000KT CAVOK
Visibility Clouds Conditions
10,000+ meters
  • No significant clouds
Becoming Jul-19 @ 11:00 to Jul-19 @ 15:00
BECMG 1911/1913 27003KT
Wind Visibility Clouds Conditions
270° at 3 knots 10,000+ meters
  • No significant clouds
Becoming Jul-19 @ 15:00 to Jul-19 @ 18:00
BECMG 1915/1917 0600 5KT SCT030 RMK PFF
Wind Visibility Clouds Conditions
270° at 3 knots 595 meters
  • Scattered at 3,000' AGL
TAF SBRB 181600Z 1818/1918 25005KT 9999 SCT030 TN21/1908Z TX33/1918Z BECMG 1822/1824 00000KT CAVOK BECMG 1911/1913 27003KT BECMG 1915/1917 0600 5KT SCT030 RMK PFF
Issued Jul-18 @ 16:00 UTC
(7 hours ago)
Valid From Jul-18 @ 18:00 UTC
(5 hours ago)
Valid To Jul-19 @ 18:00 UTC
(in 19 hours)
Jul-18 @ 18:00 - Jul-18 @ 22:00
Wind Visibility
250° at 5 knots 10,000+ meters
Clouds
  • Scattered at 3,000' AGL
Becoming Jul-18 @ 22:00 - Jul-19 @ 11:00
Clouds
  • No significant clouds
Conditions
Becoming Jul-19 @ 11:00 - Jul-19 @ 15:00
Wind Visibility
270° at 3 knots 10,000+ meters
Clouds
  • No significant clouds
Conditions
Becoming Jul-19 @ 15:00 - Jul-19 @ 18:00
Wind Visibility
270° at 3 knots 595 meters
Clouds
  • Scattered at 3,000' AGL
Conditions